createdAt,value
2022-12-31T00:02:52.359Z,99758.63
2022-12-31T00:10:11.468Z,99748.00
2022-12-31T00:17:30.065Z,99757.66
2022-12-31T00:24:51.058Z,99745.19
2022-12-31T00:32:09.256Z,99750.06
2022-12-31T00:39:27.639Z,99749.88
2022-12-31T00:46:48.487Z,99746.50
2022-12-31T00:54:06.879Z,99778.25
2022-12-31T01:01:26.933Z,99770.88
2022-12-31T01:08:48.835Z,99774.56
2022-12-31T01:16:10.763Z,99778.81
2022-12-31T01:23:29.134Z,99748.44
2022-12-31T01:30:48.948Z,99755.91
2022-12-31T01:38:07.120Z,99752.94
2022-12-31T01:45:25.998Z,99785.09
2022-12-31T01:52:48.940Z,99785.59
2022-12-31T02:00:10.004Z,99796.75
2022-12-31T02:07:28.532Z,99803.22
2022-12-31T02:14:50.944Z,99811.47
2022-12-31T02:22:15.512Z,99818.50
2022-12-31T02:30:16.071Z,99816.16
2022-12-31T02:37:37.368Z,99809.88
2022-12-31T02:44:55.792Z,99810.28
2022-12-31T02:52:19.797Z,99826.94
2022-12-31T03:00:01.024Z,99817.00
2022-12-31T03:07:22.390Z,99814.03
2022-12-31T03:14:42.392Z,99818.53
2022-12-31T03:22:18.134Z,99838.84
2022-12-31T03:29:36.725Z,99837.50
2022-12-31T03:36:56.569Z,99839.16
2022-12-31T03:44:17.563Z,99854.72
2022-12-31T03:51:36.207Z,99870.59
2022-12-31T03:58:56.159Z,99858.31
2022-12-31T04:06:14.424Z,99866.66
2022-12-31T04:13:32.802Z,99852.19
2022-12-31T04:20:52.703Z,99848.31
2022-12-31T04:28:11.029Z,99826.13
2022-12-31T04:35:29.573Z,99824.72
2022-12-31T04:42:51.147Z,99832.44
2022-12-31T04:50:09.841Z,99843.34
2022-12-31T04:57:29.785Z,99843.22
2022-12-31T05:04:49.573Z,99842.47
2022-12-31T05:12:09.417Z,99830.69
2022-12-31T05:19:27.794Z,99819.84
2022-12-31T05:26:48.016Z,99813.84
2022-12-31T05:34:06.518Z,99840.56
2022-12-31T05:41:24.842Z,99843.47
2022-12-31T05:48:45.100Z,99833.47
2022-12-31T05:56:03.386Z,99827.41
2022-12-31T06:03:21.799Z,99833.56
2022-12-31T06:10:43.155Z,99836.53
2022-12-31T06:18:01.631Z,99831.50
2022-12-31T06:25:20.339Z,99839.63
2022-12-31T06:32:43.750Z,99849.84
2022-12-31T06:40:04.263Z,99853.19
2022-12-31T06:47:22.663Z,99857.13
2022-12-31T06:54:43.201Z,99854.63
2022-12-31T07:02:18.979Z,99850.72
2022-12-31T07:09:44.277Z,99864.00
2022-12-31T07:17:09.677Z,99888.13
2022-12-31T07:24:28.885Z,99870.81
2022-12-31T07:31:57.477Z,99895.50
2022-12-31T07:39:22.520Z,99883.66
2022-12-31T07:46:51.517Z,99887.97
2022-12-31T07:54:14.135Z,99883.31
2022-12-31T08:01:47.477Z,99891.41
2022-12-31T08:09:11.061Z,99905.88
2022-12-31T08:16:30.002Z,99903.47
2022-12-31T08:23:56.456Z,99906.75
2022-12-31T08:31:18.484Z,99907.81
2022-12-31T08:38:43.129Z,99914.56
2022-12-31T08:46:03.068Z,99904.38
2022-12-31T08:53:21.977Z,99890.91
2022-12-31T09:00:40.691Z,99902.94
2022-12-31T09:08:06.101Z,99876.69
2022-12-31T09:15:28.371Z,99872.19
2022-12-31T09:22:46.845Z,99889.16
2022-12-31T09:30:09.542Z,99893.09
2022-12-31T09:37:38.121Z,99890.31
2022-12-31T09:45:21.928Z,99895.34
2022-12-31T09:52:47.485Z,99882.56
2022-12-31T10:00:13.223Z,99885.91
2022-12-31T10:07:52.153Z,99894.75
2022-12-31T10:15:37.522Z,99880.34
2022-12-31T10:23:13.331Z,99845.19
2022-12-31T10:30:35.464Z,99859.59
2022-12-31T10:38:02.200Z,99858.88
2022-12-31T10:46:03.941Z,99855.78
2022-12-31T10:54:02.551Z,99831.41
2022-12-31T11:01:28.681Z,99835.19
2022-12-31T11:09:05.345Z,99848.16
2022-12-31T11:16:47.206Z,99842.97
2022-12-31T11:24:11.494Z,99828.59
2022-12-31T11:31:58.591Z,99823.31
2022-12-31T11:39:31.027Z,99832.28
2022-12-31T11:47:00.375Z,99819.00
2022-12-31T11:54:42.921Z,99822.16
2022-12-31T12:02:11.953Z,99810.94
2022-12-31T12:09:32.954Z,99821.84
2022-12-31T12:16:57.855Z,99812.63
2022-12-31T12:24:24.497Z,99814.09
2022-12-31T12:31:43.405Z,99825.19
2022-12-31T12:39:03.698Z,99838.28
2022-12-31T12:46:29.125Z,99829.28
2022-12-31T12:53:52.779Z,99839.25
2022-12-31T13:01:19.016Z,99830.66
2022-12-31T13:08:55.888Z,99826.75
2022-12-31T13:16:18.672Z,99835.72
2022-12-31T13:23:43.790Z,99838.56
2022-12-31T13:31:07.169Z,99849.09
2022-12-31T13:38:28.671Z,99857.25
2022-12-31T13:45:54.031Z,99868.22
2022-12-31T13:53:17.157Z,99872.31
2022-12-31T14:00:38.468Z,99864.34
2022-12-31T14:07:59.815Z,99856.81
2022-12-31T14:15:22.891Z,99867.22
2022-12-31T14:22:47.783Z,99842.34
2022-12-31T14:30:10.830Z,99860.72
2022-12-31T14:37:31.838Z,99864.88
2022-12-31T14:45:01.627Z,99869.47
2022-12-31T14:52:32.699Z,99875.50
2022-12-31T14:59:54.140Z,99865.25
2022-12-31T15:07:18.144Z,99874.66
2022-12-31T15:14:51.147Z,99868.66
2022-12-31T15:22:22.498Z,99882.38
2022-12-31T15:29:45.912Z,99875.66
2022-12-31T15:37:04.840Z,99892.03
2022-12-31T15:44:27.875Z,99898.53
2022-12-31T15:51:49.777Z,99906.75
2022-12-31T15:59:14.116Z,99920.03
2022-12-31T16:06:35.166Z,99938.16
2022-12-31T16:13:56.538Z,99935.13
2022-12-31T16:21:30.558Z,99939.81
2022-12-31T16:28:49.757Z,99943.28
2022-12-31T16:36:20.374Z,99953.28
2022-12-31T16:43:40.025Z,99958.63
2022-12-31T16:50:58.615Z,99968.22
2022-12-31T16:58:21.283Z,99979.25
2022-12-31T17:05:57.934Z,99966.53
2022-12-31T17:13:28.756Z,99971.94
2022-12-31T17:20:48.044Z,99983.84
2022-12-31T17:28:09.258Z,99988.97
2022-12-31T17:35:33.574Z,99976.47
2022-12-31T17:42:52.518Z,99987.81
2022-12-31T17:50:30.472Z,100007.63
2022-12-31T17:57:53.065Z,100005.28
2022-12-31T18:05:16.206Z,100005.44
2022-12-31T18:12:35.029Z,100024.22
2022-12-31T18:20:04.587Z,100019.00
2022-12-31T18:27:23.849Z,100041.94
2022-12-31T18:34:42.023Z,100014.56
2022-12-31T18:42:01.604Z,100021.53
2022-12-31T18:49:20.067Z,100014.66
2022-12-31T18:56:43.264Z,100023.66
2022-12-31T19:04:14.026Z,100021.09
2022-12-31T19:11:35.991Z,100010.31
2022-12-31T19:18:54.559Z,100023.72
2022-12-31T19:26:16.824Z,100008.91
2022-12-31T19:33:35.165Z,100026.94
2022-12-31T19:40:54.797Z,100024.63
2022-12-31T19:48:16.053Z,100020.19
2022-12-31T19:55:34.572Z,100044.03
2022-12-31T20:02:53.110Z,100034.75
2022-12-31T20:10:13.488Z,100033.41
2022-12-31T20:17:32.122Z,100031.19
2022-12-31T20:24:50.514Z,100030.66
2022-12-31T20:32:10.521Z,100040.25
2022-12-31T20:39:29.167Z,100045.19
2022-12-31T20:46:47.375Z,100043.97
2022-12-31T20:54:08.462Z,100044.91
2022-12-31T21:01:36.384Z,100026.03
2022-12-31T21:09:08.465Z,100026.25
2022-12-31T21:16:27.783Z,100026.25
2022-12-31T21:23:46.485Z,100027.94
2022-12-31T21:31:07.839Z,100026.63
2022-12-31T21:38:26.207Z,100028.63
2022-12-31T21:45:44.861Z,100028.16
2022-12-31T21:53:04.444Z,100050.41
2022-12-31T22:00:42.757Z,100037.91
2022-12-31T22:08:01.775Z,100052.50
2022-12-31T22:15:21.388Z,100046.16
2022-12-31T22:22:39.639Z,100042.19
2022-12-31T22:29:58.312Z,100045.13
2022-12-31T22:37:54.439Z,100046.97
2022-12-31T22:44:56.940Z,100056.91
2022-12-31T22:52:15.168Z,100044.13
2022-12-31T22:59:34.752Z,100052.28
2022-12-31T23:06:53.847Z,100046.75
2022-12-31T23:14:33.730Z,100054.03
2022-12-31T23:22:11.368Z,100051.69
2022-12-31T23:29:29.899Z,100029.94
2022-12-31T23:36:48.160Z,100031.09
2022-12-31T23:44:07.901Z,100026.03
2022-12-31T23:51:26.275Z,100031.94
2022-12-31T23:58:46.344Z,100046.63
